sensor_id;sensor_type;location;lat;lon;timestamp;P1;durP1;ratioP1;P2;durP2;ratioP2
28531;SDS011;15738;44.860;10.066;2022-12-26T00:00:40;132.02;;;54.10;;
28531;SDS011;15738;44.860;10.066;2022-12-26T00:03:26;124.82;;;52.05;;
28531;SDS011;15738;44.860;10.066;2022-12-26T00:06:16;144.73;;;55.28;;
28531;SDS011;15738;44.860;10.066;2022-12-26T00:09:05;136.77;;;55.90;;
28531;SDS011;15738;44.860;10.066;2022-12-26T00:11:50;129.35;;;53.33;;
28531;SDS011;15738;44.860;10.066;2022-12-26T00:14:37;136.75;;;55.00;;
28531;SDS011;15738;44.860;10.066;2022-12-26T00:17:23;132.32;;;55.53;;
28531;SDS011;15738;44.860;10.066;2022-12-26T00:20:08;139.38;;;55.17;;
28531;SDS011;15738;44.860;10.066;2022-12-26T00:22:54;122.78;;;52.90;;
28531;SDS011;15738;44.860;10.066;2022-12-26T00:25:41;136.68;;;53.58;;
28531;SDS011;15738;44.860;10.066;2022-12-26T00:28:26;133.85;;;53.92;;
28531;SDS011;15738;44.860;10.066;2022-12-26T00:31:16;133.95;;;53.97;;
28531;SDS011;15738;44.860;10.066;2022-12-26T00:34:03;132.27;;;53.28;;
28531;SDS011;15738;44.860;10.066;2022-12-26T00:36:49;131.88;;;51.22;;
28531;SDS011;15738;44.860;10.066;2022-12-26T00:39:35;128.38;;;50.92;;
28531;SDS011;15738;44.860;10.066;2022-12-26T00:42:20;126.35;;;51.03;;
28531;SDS011;15738;44.860;10.066;2022-12-26T00:45:06;126.07;;;50.38;;
28531;SDS011;15738;44.860;10.066;2022-12-26T00:47:52;131.43;;;51.75;;
28531;SDS011;15738;44.860;10.066;2022-12-26T00:50:38;132.05;;;53.30;;
28531;SDS011;15738;44.860;10.066;2022-12-26T00:53:24;126.10;;;52.92;;
28531;SDS011;15738;44.860;10.066;2022-12-26T00:56:10;131.45;;;51.05;;
28531;SDS011;15738;44.860;10.066;2022-12-26T00:58:56;121.47;;;49.80;;
28531;SDS011;15738;44.860;10.066;2022-12-26T01:01:42;132.55;;;49.90;;
28531;SDS011;15738;44.860;10.066;2022-12-26T01:04:28;116.07;;;47.80;;
28531;SDS011;15738;44.860;10.066;2022-12-26T01:07:14;119.97;;;48.70;;
28531;SDS011;15738;44.860;10.066;2022-12-26T01:09:59;119.57;;;49.03;;
28531;SDS011;15738;44.860;10.066;2022-12-26T01:12:45;124.07;;;49.63;;
28531;SDS011;15738;44.860;10.066;2022-12-26T01:15:30;115.45;;;46.95;;
28531;SDS011;15738;44.860;10.066;2022-12-26T01:18:18;117.45;;;47.35;;
28531;SDS011;15738;44.860;10.066;2022-12-26T01:21:06;118.85;;;47.05;;
28531;SDS011;15738;44.860;10.066;2022-12-26T01:23:53;114.18;;;46.30;;
28531;SDS011;15738;44.860;10.066;2022-12-26T01:26:39;119.82;;;48.00;;
28531;SDS011;15738;44.860;10.066;2022-12-26T01:29:25;120.55;;;48.05;;
28531;SDS011;15738;44.860;10.066;2022-12-26T01:32:10;112.20;;;47.45;;
28531;SDS011;15738;44.860;10.066;2022-12-26T01:34:56;114.57;;;47.08;;
28531;SDS011;15738;44.860;10.066;2022-12-26T01:37:41;113.07;;;45.78;;
28531;SDS011;15738;44.860;10.066;2022-12-26T01:40:27;121.93;;;47.22;;
28531;SDS011;15738;44.860;10.066;2022-12-26T01:43:14;104.55;;;44.00;;
28531;SDS011;15738;44.860;10.066;2022-12-26T01:46:00;112.13;;;43.92;;
28531;SDS011;15738;44.860;10.066;2022-12-26T01:48:45;109.47;;;46.05;;
28531;SDS011;15738;44.860;10.066;2022-12-26T01:51:32;104.35;;;42.85;;
28531;SDS011;15738;44.860;10.066;2022-12-26T01:54:22;102.90;;;44.92;;
28531;SDS011;15738;44.860;10.066;2022-12-26T01:57:30;99.45;;;43.58;;
28531;SDS011;15738;44.860;10.066;2022-12-26T02:00:21;95.22;;;42.03;;
28531;SDS011;15738;44.860;10.066;2022-12-26T02:03:07;93.32;;;41.05;;
28531;SDS011;15738;44.860;10.066;2022-12-26T02:06:12;103.03;;;42.55;;
28531;SDS011;15738;44.860;10.066;2022-12-26T02:08:59;92.43;;;39.80;;
28531;SDS011;15738;44.860;10.066;2022-12-26T02:11:49;93.68;;;40.85;;
28531;SDS011;15738;44.860;10.066;2022-12-26T02:15:01;97.72;;;41.13;;
28531;SDS011;15738;44.860;10.066;2022-12-26T02:17:49;95.22;;;41.05;;
28531;SDS011;15738;44.860;10.066;2022-12-26T02:20:40;98.13;;;40.20;;
28531;SDS011;15738;44.860;10.066;2022-12-26T02:27:07;80.50;;;36.75;;
28531;SDS011;15738;44.860;10.066;2022-12-26T02:42:32;76.95;;;36.72;;
28531;SDS011;15738;44.860;10.066;2022-12-26T02:48:35;71.25;;;34.95;;
28531;SDS011;15738;44.860;10.066;2022-12-26T02:55:15;73.20;;;34.70;;
28531;SDS011;15738;44.860;10.066;2022-12-26T02:58:28;80.22;;;35.33;;
28531;SDS011;15738;44.860;10.066;2022-12-26T03:01:40;74.03;;;35.08;;
28531;SDS011;15738;44.860;10.066;2022-12-26T03:04:48;76.13;;;34.08;;
28531;SDS011;15738;44.860;10.066;2022-12-26T03:07:55;72.60;;;33.30;;
28531;SDS011;15738;44.860;10.066;2022-12-26T03:11:01;72.72;;;34.50;;
28531;SDS011;15738;44.860;10.066;2022-12-26T03:14:28;76.70;;;37.15;;
28531;SDS011;15738;44.860;10.066;2022-12-26T03:17:24;72.80;;;35.80;;
28531;SDS011;15738;44.860;10.066;2022-12-26T03:20:15;71.88;;;35.03;;
28531;SDS011;15738;44.860;10.066;2022-12-26T03:23:11;76.15;;;34.95;;
28531;SDS011;15738;44.860;10.066;2022-12-26T03:26:00;71.13;;;34.58;;
28531;SDS011;15738;44.860;10.066;2022-12-26T03:29:10;82.63;;;36.83;;
28531;SDS011;15738;44.860;10.066;2022-12-26T03:32:22;85.10;;;39.60;;
28531;SDS011;15738;44.860;10.066;2022-12-26T03:35:11;89.05;;;37.28;;
28531;SDS011;15738;44.860;10.066;2022-12-26T03:38:08;83.53;;;38.75;;
28531;SDS011;15738;44.860;10.066;2022-12-26T03:41:05;76.68;;;36.83;;
28531;SDS011;15738;44.860;10.066;2022-12-26T03:47:57;80.82;;;37.47;;
28531;SDS011;15738;44.860;10.066;2022-12-26T03:51:40;77.03;;;35.10;;
28531;SDS011;15738;44.860;10.066;2022-12-26T03:58:21;79.75;;;37.22;;
28531;SDS011;15738;44.860;10.066;2022-12-26T04:01:28;81.88;;;37.40;;
28531;SDS011;15738;44.860;10.066;2022-12-26T04:04:36;74.55;;;34.75;;
28531;SDS011;15738;44.860;10.066;2022-12-26T04:08:05;72.88;;;35.67;;
28531;SDS011;15738;44.860;10.066;2022-12-26T04:11:19;81.00;;;37.00;;
28531;SDS011;15738;44.860;10.066;2022-12-26T04:21:14;75.10;;;36.47;;
28531;SDS011;15738;44.860;10.066;2022-12-26T04:24:19;80.78;;;38.63;;
28531;SDS011;15738;44.860;10.066;2022-12-26T04:27:28;77.38;;;37.53;;
28531;SDS011;15738;44.860;10.066;2022-12-26T04:30:34;76.30;;;36.65;;
28531;SDS011;15738;44.860;10.066;2022-12-26T04:33:44;79.72;;;36.70;;
28531;SDS011;15738;44.860;10.066;2022-12-26T04:36:56;78.00;;;36.80;;
28531;SDS011;15738;44.860;10.066;2022-12-26T04:40:04;72.15;;;35.78;;
28531;SDS011;15738;44.860;10.066;2022-12-26T04:43:12;76.28;;;36.28;;
28531;SDS011;15738;44.860;10.066;2022-12-26T04:46:38;81.25;;;36.42;;
28531;SDS011;15738;44.860;10.066;2022-12-26T04:49:26;77.35;;;36.80;;
28531;SDS011;15738;44.860;10.066;2022-12-26T04:52:31;72.38;;;35.15;;
28531;SDS011;15738;44.860;10.066;2022-12-26T04:55:35;70.68;;;35.28;;
28531;SDS011;15738;44.860;10.066;2022-12-26T04:58:21;82.07;;;36.72;;
28531;SDS011;15738;44.860;10.066;2022-12-26T05:01:08;72.35;;;36.10;;
28531;SDS011;15738;44.860;10.066;2022-12-26T05:04:14;76.15;;;35.72;;
28531;SDS011;15738;44.860;10.066;2022-12-26T05:07:21;78.25;;;34.58;;
28531;SDS011;15738;44.860;10.066;2022-12-26T05:10:26;69.35;;;34.05;;
28531;SDS011;15738;44.860;10.066;2022-12-26T05:13:12;63.00;;;32.63;;
28531;SDS011;15738;44.860;10.066;2022-12-26T05:15:59;68.25;;;32.83;;
28531;SDS011;15738;44.860;10.066;2022-12-26T05:19:04;70.93;;;33.45;;
28531;SDS011;15738;44.860;10.066;2022-12-26T05:22:09;66.40;;;32.55;;
28531;SDS011;15738;44.860;10.066;2022-12-26T05:25:15;67.57;;;32.67;;
28531;SDS011;15738;44.860;10.066;2022-12-26T05:28:22;66.90;;;32.33;;
28531;SDS011;15738;44.860;10.066;2022-12-26T05:31:26;67.82;;;32.42;;
28531;SDS011;15738;44.860;10.066;2022-12-26T05:34:19;66.72;;;32.78;;
28531;SDS011;15738;44.860;10.066;2022-12-26T05:37:05;69.32;;;33.63;;
28531;SDS011;15738;44.860;10.066;2022-12-26T05:39:51;68.65;;;33.75;;
28531;SDS011;15738;44.860;10.066;2022-12-26T05:42:36;70.22;;;34.03;;
28531;SDS011;15738;44.860;10.066;2022-12-26T05:45:22;72.25;;;35.55;;
28531;SDS011;15738;44.860;10.066;2022-12-26T05:48:08;75.97;;;33.78;;
28531;SDS011;15738;44.860;10.066;2022-12-26T05:50:58;75.85;;;34.75;;
28531;SDS011;15738;44.860;10.066;2022-12-26T05:53:44;70.97;;;32.92;;
28531;SDS011;15738;44.860;10.066;2022-12-26T05:56:30;70.32;;;34.00;;
28531;SDS011;15738;44.860;10.066;2022-12-26T05:59:16;67.72;;;33.35;;
28531;SDS011;15738;44.860;10.066;2022-12-26T06:02:02;62.22;;;31.00;;
28531;SDS011;15738;44.860;10.066;2022-12-26T06:04:48;62.78;;;31.58;;
28531;SDS011;15738;44.860;10.066;2022-12-26T06:07:33;57.42;;;29.35;;
28531;SDS011;15738;44.860;10.066;2022-12-26T06:10:19;54.40;;;29.25;;
28531;SDS011;15738;44.860;10.066;2022-12-26T06:13:05;54.50;;;26.77;;
28531;SDS011;15738;44.860;10.066;2022-12-26T06:15:51;53.67;;;27.77;;
28531;SDS011;15738;44.860;10.066;2022-12-26T06:18:37;52.83;;;27.00;;
28531;SDS011;15738;44.860;10.066;2022-12-26T06:21:23;50.47;;;26.98;;
28531;SDS011;15738;44.860;10.066;2022-12-26T06:24:09;46.92;;;25.88;;
28531;SDS011;15738;44.860;10.066;2022-12-26T06:26:54;50.75;;;27.23;;
28531;SDS011;15738;44.860;10.066;2022-12-26T06:29:40;53.63;;;27.88;;
28531;SDS011;15738;44.860;10.066;2022-12-26T06:32:26;54.45;;;27.98;;
28531;SDS011;15738;44.860;10.066;2022-12-26T06:35:11;53.65;;;27.25;;
28531;SDS011;15738;44.860;10.066;2022-12-26T06:37:57;49.53;;;26.67;;
28531;SDS011;15738;44.860;10.066;2022-12-26T06:43:57;54.22;;;28.13;;
28531;SDS011;15738;44.860;10.066;2022-12-26T06:46:44;53.25;;;26.13;;
28531;SDS011;15738;44.860;10.066;2022-12-26T06:49:30;49.30;;;26.45;;
28531;SDS011;15738;44.860;10.066;2022-12-26T06:52:19;50.45;;;27.35;;
28531;SDS011;15738;44.860;10.066;2022-12-26T06:55:05;50.05;;;27.98;;
28531;SDS011;15738;44.860;10.066;2022-12-26T06:57:51;50.88;;;26.67;;
28531;SDS011;15738;44.860;10.066;2022-12-26T07:00:37;46.90;;;26.40;;
28531;SDS011;15738;44.860;10.066;2022-12-26T07:03:23;57.10;;;28.50;;
28531;SDS011;15738;44.860;10.066;2022-12-26T07:13:42;47.70;;;25.98;;
28531;SDS011;15738;44.860;10.066;2022-12-26T07:16:30;51.28;;;27.23;;
28531;SDS011;15738;44.860;10.066;2022-12-26T07:19:18;48.22;;;26.38;;
28531;SDS011;15738;44.860;10.066;2022-12-26T07:22:04;50.55;;;27.95;;
28531;SDS011;15738;44.860;10.066;2022-12-26T07:24:49;51.60;;;27.63;;
28531;SDS011;15738;44.860;10.066;2022-12-26T07:30:47;54.45;;;27.77;;
28531;SDS011;15738;44.860;10.066;2022-12-26T07:33:34;50.50;;;27.60;;
28531;SDS011;15738;44.860;10.066;2022-12-26T07:36:20;52.03;;;27.52;;
28531;SDS011;15738;44.860;10.066;2022-12-26T07:39:11;54.53;;;28.52;;
28531;SDS011;15738;44.860;10.066;2022-12-26T07:41:57;53.63;;;27.40;;
28531;SDS011;15738;44.860;10.066;2022-12-26T07:44:42;51.65;;;28.60;;
28531;SDS011;15738;44.860;10.066;2022-12-26T07:47:28;51.65;;;27.95;;
28531;SDS011;15738;44.860;10.066;2022-12-26T07:50:13;53.78;;;28.52;;
28531;SDS011;15738;44.860;10.066;2022-12-26T07:52:59;56.92;;;28.48;;
28531;SDS011;15738;44.860;10.066;2022-12-26T07:55:45;54.80;;;28.48;;
28531;SDS011;15738;44.860;10.066;2022-12-26T07:58:35;49.95;;;28.30;;
28531;SDS011;15738;44.860;10.066;2022-12-26T08:01:21;57.08;;;30.13;;
28531;SDS011;15738;44.860;10.066;2022-12-26T08:04:08;63.38;;;30.70;;
28531;SDS011;15738;44.860;10.066;2022-12-26T08:06:55;63.22;;;31.55;;
28531;SDS011;15738;44.860;10.066;2022-12-26T08:09:41;55.10;;;30.13;;
28531;SDS011;15738;44.860;10.066;2022-12-26T08:12:30;53.88;;;28.83;;
28531;SDS011;15738;44.860;10.066;2022-12-26T08:15:16;59.42;;;31.08;;
28531;SDS011;15738;44.860;10.066;2022-12-26T08:18:02;61.83;;;30.70;;
28531;SDS011;15738;44.860;10.066;2022-12-26T08:20:48;56.50;;;29.67;;
28531;SDS011;15738;44.860;10.066;2022-12-26T08:23:34;57.45;;;29.52;;
28531;SDS011;15738;44.860;10.066;2022-12-26T08:26:20;62.08;;;30.52;;
28531;SDS011;15738;44.860;10.066;2022-12-26T08:29:08;63.45;;;31.35;;
28531;SDS011;15738;44.860;10.066;2022-12-26T08:31:55;59.70;;;31.55;;
28531;SDS011;15738;44.860;10.066;2022-12-26T08:34:42;57.80;;;30.08;;
28531;SDS011;15738;44.860;10.066;2022-12-26T08:37:29;58.80;;;30.92;;
28531;SDS011;15738;44.860;10.066;2022-12-26T08:40:15;60.17;;;30.98;;
28531;SDS011;15738;44.860;10.066;2022-12-26T08:43:21;65.28;;;31.88;;
28531;SDS011;15738;44.860;10.066;2022-12-26T08:46:28;66.85;;;32.97;;
28531;SDS011;15738;44.860;10.066;2022-12-26T08:49:14;65.95;;;34.60;;
28531;SDS011;15738;44.860;10.066;2022-12-26T08:52:00;70.63;;;33.92;;
28531;SDS011;15738;44.860;10.066;2022-12-26T08:54:46;67.63;;;34.75;;
28531;SDS011;15738;44.860;10.066;2022-12-26T08:57:32;71.90;;;35.85;;
28531;SDS011;15738;44.860;10.066;2022-12-26T09:00:18;76.70;;;37.33;;
28531;SDS011;15738;44.860;10.066;2022-12-26T09:03:09;77.28;;;36.03;;
28531;SDS011;15738;44.860;10.066;2022-12-26T09:05:58;82.18;;;37.33;;
28531;SDS011;15738;44.860;10.066;2022-12-26T09:08:49;82.43;;;38.67;;
28531;SDS011;15738;44.860;10.066;2022-12-26T09:11:36;84.75;;;38.35;;
28531;SDS011;15738;44.860;10.066;2022-12-26T09:14:23;79.63;;;37.00;;
28531;SDS011;15738;44.860;10.066;2022-12-26T09:17:09;77.55;;;36.63;;
28531;SDS011;15738;44.860;10.066;2022-12-26T09:19:55;83.93;;;37.67;;
28531;SDS011;15738;44.860;10.066;2022-12-26T09:22:41;93.78;;;40.45;;
28531;SDS011;15738;44.860;10.066;2022-12-26T09:25:35;88.28;;;41.22;;
28531;SDS011;15738;44.860;10.066;2022-12-26T09:28:21;92.13;;;41.83;;
28531;SDS011;15738;44.860;10.066;2022-12-26T09:31:11;81.85;;;39.33;;
28531;SDS011;15738;44.860;10.066;2022-12-26T09:34:05;96.15;;;40.10;;
28531;SDS011;15738;44.860;10.066;2022-12-26T09:36:51;83.72;;;39.92;;
28531;SDS011;15738;44.860;10.066;2022-12-26T09:39:37;81.45;;;38.78;;
28531;SDS011;15738;44.860;10.066;2022-12-26T09:45:33;87.18;;;39.70;;
28531;SDS011;15738;44.860;10.066;2022-12-26T09:48:33;77.07;;;38.85;;
28531;SDS011;15738;44.860;10.066;2022-12-26T09:51:30;79.65;;;38.53;;
28531;SDS011;15738;44.860;10.066;2022-12-26T09:54:23;87.03;;;40.55;;
28531;SDS011;15738;44.860;10.066;2022-12-26T09:57:19;87.53;;;40.30;;
28531;SDS011;15738;44.860;10.066;2022-12-26T10:00:29;87.05;;;40.63;;
28531;SDS011;15738;44.860;10.066;2022-12-26T10:03:21;83.25;;;39.13;;
28531;SDS011;15738;44.860;10.066;2022-12-26T10:06:09;86.68;;;41.30;;
28531;SDS011;15738;44.860;10.066;2022-12-26T10:09:07;82.07;;;40.35;;
28531;SDS011;15738;44.860;10.066;2022-12-26T10:14:55;81.10;;;40.25;;
28531;SDS011;15738;44.860;10.066;2022-12-26T10:24:03;75.18;;;38.00;;
28531;SDS011;15738;44.860;10.066;2022-12-26T10:27:10;75.38;;;38.53;;
28531;SDS011;15738;44.860;10.066;2022-12-26T10:30:34;82.63;;;38.22;;
28531;SDS011;15738;44.860;10.066;2022-12-26T10:37:03;74.30;;;36.63;;
28531;SDS011;15738;44.860;10.066;2022-12-26T10:43:33;69.35;;;32.47;;
28531;SDS011;15738;44.860;10.066;2022-12-26T10:49:15;67.10;;;34.13;;
28531;SDS011;15738;44.860;10.066;2022-12-26T10:52:04;67.90;;;34.25;;
28531;SDS011;15738;44.860;10.066;2022-12-26T10:54:51;61.83;;;31.15;;
28531;SDS011;15738;44.860;10.066;2022-12-26T10:58:18;61.40;;;32.33;;
28531;SDS011;15738;44.860;10.066;2022-12-26T11:07:28;62.90;;;33.22;;
28531;SDS011;15738;44.860;10.066;2022-12-26T11:10:21;63.00;;;32.20;;
28531;SDS011;15738;44.860;10.066;2022-12-26T11:13:20;52.90;;;28.90;;
28531;SDS011;15738;44.860;10.066;2022-12-26T11:16:08;54.25;;;29.90;;
28531;SDS011;15738;44.860;10.066;2022-12-26T11:18:56;55.30;;;30.17;;
28531;SDS011;15738;44.860;10.066;2022-12-26T11:21:42;56.17;;;30.08;;
28531;SDS011;15738;44.860;10.066;2022-12-26T11:24:38;55.65;;;29.75;;
28531;SDS011;15738;44.860;10.066;2022-12-26T11:27:23;52.35;;;28.50;;
28531;SDS011;15738;44.860;10.066;2022-12-26T11:36:06;56.95;;;30.27;;
28531;SDS011;15738;44.860;10.066;2022-12-26T11:39:01;56.03;;;29.77;;
28531;SDS011;15738;44.860;10.066;2022-12-26T11:41:50;49.95;;;27.73;;
28531;SDS011;15738;44.860;10.066;2022-12-26T11:44:38;55.40;;;29.27;;
28531;SDS011;15738;44.860;10.066;2022-12-26T11:47:27;56.88;;;29.48;;
28531;SDS011;15738;44.860;10.066;2022-12-26T11:50:14;48.38;;;27.75;;
28531;SDS011;15738;44.860;10.066;2022-12-26T11:53:05;50.60;;;27.63;;
28531;SDS011;15738;44.860;10.066;2022-12-26T11:55:59;55.45;;;29.15;;
28531;SDS011;15738;44.860;10.066;2022-12-26T11:58:46;49.25;;;27.95;;
28531;SDS011;15738;44.860;10.066;2022-12-26T12:01:32;49.85;;;28.27;;
28531;SDS011;15738;44.860;10.066;2022-12-26T12:04:18;47.30;;;27.33;;
28531;SDS011;15738;44.860;10.066;2022-12-26T12:07:27;44.83;;;25.98;;
28531;SDS011;15738;44.860;10.066;2022-12-26T12:10:33;52.17;;;26.45;;
28531;SDS011;15738;44.860;10.066;2022-12-26T12:19:37;51.08;;;26.13;;
28531;SDS011;15738;44.860;10.066;2022-12-26T12:22:37;40.38;;;23.73;;
28531;SDS011;15738;44.860;10.066;2022-12-26T12:32:03;40.03;;;23.60;;
28531;SDS011;15738;44.860;10.066;2022-12-26T12:35:23;40.92;;;23.92;;
28531;SDS011;15738;44.860;10.066;2022-12-26T12:51:36;52.67;;;26.35;;
28531;SDS011;15738;44.860;10.066;2022-12-26T13:01:13;40.90;;;24.60;;
28531;SDS011;15738;44.860;10.066;2022-12-26T13:04:08;37.45;;;22.35;;
28531;SDS011;15738;44.860;10.066;2022-12-26T13:07:23;40.47;;;22.65;;
28531;SDS011;15738;44.860;10.066;2022-12-26T13:10:32;50.57;;;24.70;;
28531;SDS011;15738;44.860;10.066;2022-12-26T13:14:06;42.10;;;24.35;;
28531;SDS011;15738;44.860;10.066;2022-12-26T13:16:39;41.70;;;22.95;;
28531;SDS011;15738;44.860;10.066;2022-12-26T13:19:50;43.53;;;23.77;;
28531;SDS011;15738;44.860;10.066;2022-12-26T13:22:48;39.85;;;23.55;;
28531;SDS011;15738;44.860;10.066;2022-12-26T13:29:03;38.15;;;22.40;;
28531;SDS011;15738;44.860;10.066;2022-12-26T13:31:50;41.25;;;22.17;;
28531;SDS011;15738;44.860;10.066;2022-12-26T13:34:38;43.25;;;23.92;;
28531;SDS011;15738;44.860;10.066;2022-12-26T13:40:25;41.72;;;23.23;;
28531;SDS011;15738;44.860;10.066;2022-12-26T13:46:33;39.92;;;23.90;;
28531;SDS011;15738;44.860;10.066;2022-12-26T13:49:33;46.17;;;26.50;;
28531;SDS011;15738;44.860;10.066;2022-12-26T13:52:31;48.10;;;26.30;;
28531;SDS011;15738;44.860;10.066;2022-12-26T13:55:26;55.95;;;27.90;;
28531;SDS011;15738;44.860;10.066;2022-12-26T14:11:11;57.58;;;30.48;;
28531;SDS011;15738;44.860;10.066;2022-12-26T14:14:23;58.75;;;29.58;;
28531;SDS011;15738;44.860;10.066;2022-12-26T14:17:33;57.30;;;29.42;;
28531;SDS011;15738;44.860;10.066;2022-12-26T14:20:37;58.47;;;28.23;;
28531;SDS011;15738;44.860;10.066;2022-12-26T14:23:45;55.38;;;28.83;;
28531;SDS011;15738;44.860;10.066;2022-12-26T14:36:15;54.70;;;28.75;;
28531;SDS011;15738;44.860;10.066;2022-12-26T14:39:24;53.67;;;28.55;;
28531;SDS011;15738;44.860;10.066;2022-12-26T14:42:27;53.95;;;28.15;;
28531;SDS011;15738;44.860;10.066;2022-12-26T14:54:16;51.80;;;29.05;;
28531;SDS011;15738;44.860;10.066;2022-12-26T15:00:25;48.13;;;26.38;;
28531;SDS011;15738;44.860;10.066;2022-12-26T15:06:18;49.72;;;27.50;;
28531;SDS011;15738;44.860;10.066;2022-12-26T15:33:51;50.78;;;26.75;;
28531;SDS011;15738;44.860;10.066;2022-12-26T15:43:27;49.22;;;26.08;;
28531;SDS011;15738;44.860;10.066;2022-12-26T15:46:19;49.85;;;27.80;;
28531;SDS011;15738;44.860;10.066;2022-12-26T15:49:28;50.85;;;26.67;;
28531;SDS011;15738;44.860;10.066;2022-12-26T15:56:01;44.00;;;25.40;;
28531;SDS011;15738;44.860;10.066;2022-12-26T16:11:06;46.63;;;26.77;;
28531;SDS011;15738;44.860;10.066;2022-12-26T16:14:01;49.88;;;27.33;;
28531;SDS011;15738;44.860;10.066;2022-12-26T16:16:47;60.08;;;26.90;;
28531;SDS011;15738;44.860;10.066;2022-12-26T16:19:33;49.05;;;26.65;;
28531;SDS011;15738;44.860;10.066;2022-12-26T16:22:24;46.58;;;25.95;;
28531;SDS011;15738;44.860;10.066;2022-12-26T16:25:33;49.53;;;26.92;;
28531;SDS011;15738;44.860;10.066;2022-12-26T16:28:26;49.15;;;26.75;;
28531;SDS011;15738;44.860;10.066;2022-12-26T16:31:27;47.17;;;25.02;;
28531;SDS011;15738;44.860;10.066;2022-12-26T16:34:23;48.28;;;27.50;;
28531;SDS011;15738;44.860;10.066;2022-12-26T16:37:20;47.65;;;26.85;;
28531;SDS011;15738;44.860;10.066;2022-12-26T16:43:01;51.25;;;27.60;;
28531;SDS011;15738;44.860;10.066;2022-12-26T16:46:06;50.20;;;26.25;;
28531;SDS011;15738;44.860;10.066;2022-12-26T16:48:59;54.80;;;27.63;;
28531;SDS011;15738;44.860;10.066;2022-12-26T16:51:46;49.60;;;25.42;;
28531;SDS011;15738;44.860;10.066;2022-12-26T16:54:37;53.40;;;28.02;;
28531;SDS011;15738;44.860;10.066;2022-12-26T16:57:26;55.88;;;27.00;;
28531;SDS011;15738;44.860;10.066;2022-12-26T17:00:21;49.70;;;27.98;;
28531;SDS011;15738;44.860;10.066;2022-12-26T17:03:08;50.15;;;27.90;;
28531;SDS011;15738;44.860;10.066;2022-12-26T17:06:13;56.28;;;30.70;;
28531;SDS011;15738;44.860;10.066;2022-12-26T17:09:08;70.18;;;36.17;;
28531;SDS011;15738;44.860;10.066;2022-12-26T17:12:00;68.32;;;36.80;;
28531;SDS011;15738;44.860;10.066;2022-12-26T17:14:49;65.90;;;34.65;;
28531;SDS011;15738;44.860;10.066;2022-12-26T17:17:36;64.07;;;33.70;;
28531;SDS011;15738;44.860;10.066;2022-12-26T17:23:29;59.28;;;32.13;;
28531;SDS011;15738;44.860;10.066;2022-12-26T17:26:22;57.53;;;30.95;;
28531;SDS011;15738;44.860;10.066;2022-12-26T17:32:33;54.35;;;30.77;;
28531;SDS011;15738;44.860;10.066;2022-12-26T17:35:24;60.95;;;30.75;;
28531;SDS011;15738;44.860;10.066;2022-12-26T17:41:23;59.95;;;31.20;;
28531;SDS011;15738;44.860;10.066;2022-12-26T17:47:26;63.40;;;34.80;;
28531;SDS011;15738;44.860;10.066;2022-12-26T17:50:12;75.75;;;42.55;;
28531;SDS011;15738;44.860;10.066;2022-12-26T17:53:43;83.43;;;40.97;;
28531;SDS011;15738;44.860;10.066;2022-12-26T17:56:16;73.93;;;39.58;;
28531;SDS011;15738;44.860;10.066;2022-12-26T17:59:09;69.03;;;38.53;;
28531;SDS011;15738;44.860;10.066;2022-12-26T18:01:58;77.20;;;40.55;;
28531;SDS011;15738;44.860;10.066;2022-12-26T18:04:44;70.85;;;38.95;;
28531;SDS011;15738;44.860;10.066;2022-12-26T18:07:31;74.10;;;39.80;;
28531;SDS011;15738;44.860;10.066;2022-12-26T18:10:18;74.60;;;39.80;;
28531;SDS011;15738;44.860;10.066;2022-12-26T18:13:07;66.35;;;35.67;;
28531;SDS011;15738;44.860;10.066;2022-12-26T18:15:58;66.97;;;32.58;;
28531;SDS011;15738;44.860;10.066;2022-12-26T18:18:45;69.35;;;33.53;;
28531;SDS011;15738;44.860;10.066;2022-12-26T18:21:32;59.15;;;30.80;;
28531;SDS011;15738;44.860;10.066;2022-12-26T18:24:17;65.10;;;32.35;;
28531;SDS011;15738;44.860;10.066;2022-12-26T18:27:03;87.15;;;40.90;;
28531;SDS011;15738;44.860;10.066;2022-12-26T18:29:50;87.45;;;40.45;;
28531;SDS011;15738;44.860;10.066;2022-12-26T18:33:21;76.15;;;38.88;;
28531;SDS011;15738;44.860;10.066;2022-12-26T18:36:13;62.28;;;32.38;;
28531;SDS011;15738;44.860;10.066;2022-12-26T18:39:00;78.20;;;39.20;;
28531;SDS011;15738;44.860;10.066;2022-12-26T18:41:46;63.45;;;34.50;;
28531;SDS011;15738;44.860;10.066;2022-12-26T18:44:31;64.38;;;32.15;;
28531;SDS011;15738;44.860;10.066;2022-12-26T18:47:18;58.47;;;31.15;;
28531;SDS011;15738;44.860;10.066;2022-12-26T18:50:08;59.33;;;32.30;;
28531;SDS011;15738;44.860;10.066;2022-12-26T18:52:55;66.53;;;33.83;;
28531;SDS011;15738;44.860;10.066;2022-12-26T18:55:41;65.35;;;34.47;;
28531;SDS011;15738;44.860;10.066;2022-12-26T18:58:27;64.55;;;34.35;;
28531;SDS011;15738;44.860;10.066;2022-12-26T19:01:13;82.55;;;35.95;;
28531;SDS011;15738;44.860;10.066;2022-12-26T19:04:00;63.47;;;35.42;;
28531;SDS011;15738;44.860;10.066;2022-12-26T19:06:46;64.20;;;35.85;;
28531;SDS011;15738;44.860;10.066;2022-12-26T19:09:32;72.55;;;38.65;;
28531;SDS011;15738;44.860;10.066;2022-12-26T19:12:17;74.03;;;39.33;;
28531;SDS011;15738;44.860;10.066;2022-12-26T19:15:03;72.50;;;38.42;;
28531;SDS011;15738;44.860;10.066;2022-12-26T19:17:49;81.43;;;41.30;;
28531;SDS011;15738;44.860;10.066;2022-12-26T19:20:35;75.20;;;39.17;;
28531;SDS011;15738;44.860;10.066;2022-12-26T19:23:28;73.65;;;38.08;;
28531;SDS011;15738;44.860;10.066;2022-12-26T19:26:14;64.07;;;35.03;;
28531;SDS011;15738;44.860;10.066;2022-12-26T19:29:01;68.95;;;34.78;;
28531;SDS011;15738;44.860;10.066;2022-12-26T19:31:47;61.95;;;34.53;;
28531;SDS011;15738;44.860;10.066;2022-12-26T19:34:32;60.50;;;32.97;;
28531;SDS011;15738;44.860;10.066;2022-12-26T19:37:18;60.78;;;32.85;;
28531;SDS011;15738;44.860;10.066;2022-12-26T19:40:04;67.25;;;34.22;;
28531;SDS011;15738;44.860;10.066;2022-12-26T19:42:51;58.20;;;31.75;;
28531;SDS011;15738;44.860;10.066;2022-12-26T19:45:37;57.17;;;32.40;;
28531;SDS011;15738;44.860;10.066;2022-12-26T19:49:07;68.93;;;34.10;;
28531;SDS011;15738;44.860;10.066;2022-12-26T19:51:53;68.47;;;36.00;;
28531;SDS011;15738;44.860;10.066;2022-12-26T19:54:38;70.90;;;36.40;;
28531;SDS011;15738;44.860;10.066;2022-12-26T20:01:08;59.70;;;32.80;;
28531;SDS011;15738;44.860;10.066;2022-12-26T20:03:59;61.67;;;33.03;;
28531;SDS011;15738;44.860;10.066;2022-12-26T20:06:46;63.92;;;33.47;;
28531;SDS011;15738;44.860;10.066;2022-12-26T20:09:31;54.90;;;30.95;;
28531;SDS011;15738;44.860;10.066;2022-12-26T20:12:17;59.92;;;31.17;;
28531;SDS011;15738;44.860;10.066;2022-12-26T20:15:03;58.78;;;31.40;;
28531;SDS011;15738;44.860;10.066;2022-12-26T20:17:52;59.75;;;32.33;;
28531;SDS011;15738;44.860;10.066;2022-12-26T20:20:39;57.65;;;30.70;;
28531;SDS011;15738;44.860;10.066;2022-12-26T20:23:25;53.75;;;30.23;;
28531;SDS011;15738;44.860;10.066;2022-12-26T20:26:12;57.97;;;30.00;;